Central, Arizona
Current Conditions -  °F | °C
As of 2:51 PM on Monday 22 Dec 2014 (Local Time) from KSAD Reporting Station
Clear Clear  
Wind Chill: 64°   Ceiling: Unl
Heat Index: 64°   Visibility: 10mi
Dew Point: 37°   Wind: 16mph
Humidity: 37%   Direction: 300°WNW
Pressure: 29.84"   Gusts: 25mph
Location:  32.87°N, 109.79°W
Report Text: KSAD 222151Z AUTO 30014G22KT 10SM CLR 18/03 A2984 RMK AO2 SLP084 T01780028
Loading
Personal Weather Stations






























Interactive Weather Map New forecast layout! Learn more

10-Day Weather Forecast

Advertisements
Track Severe Weather on mobile